KDUA/DUA METAR and TAF weather

Enter ICAO airport designator
Station Type Date Time Source
KDUA METAR 2018/04/21 11:35 UTC NOAA

KDUA 211135Z AUTO 14013G23KT 10SM CLR 11/06 A3000 RMK AO2


Station Type Date Time Source
KDUA Decoded METAR 2018/04/21 11:35 UTC NOAA

Durant, Eaker Field Airport, OK, United States (KDUA) 33-56-32N 096-23-40W
Apr 21, 2018 - 07:35 AM EDT / 2018.04.21 1135 UTC
Wind: from the SE (140 degrees) at 15 MPH (13 KT) gusting to 26 MPH (23 KT):0
Visibility: 10 mile(s):0
Sky conditions: clear
Temperature: 51 F (11 C)
Dew Point: 42 F (6 C)
Relative Humidity: 71%
Pressure (altimeter): 30 in. Hg (1015 hPa)
ob: KDUA 211135Z AUTO 14013G23KT 10SM CLR 11/06 A3000 RMK AO2
cycle: 11

Station Type Date Time Source
KDUA TAF UTC NOAA

Error!


Example: see airport list